Time;durP1;ratioP1;P1;durP2;ratioP2;P2;SDS_P1;SDS_P2;PMS_P1;PMS_P2;Temp;Humidity;BMP_temperature;BMP_pressure;BME280_temperature;BME280_humidity;BME280_pressure;Samples;Min_cycle;Max_cycle;Signal;HPM_P1;HPM_P2
2021/04/12 00:00:36;;;;;;;8.50;4.90;;;4.90;99.90;;;;;;5039547;28;20410;-67
2021/04/12 00:03:27;;;;;;;8.60;5.50;;;4.80;99.90;;;;;;5069590;28;20419;-65
2021/04/12 00:06:14;;;;;;;10.65;6.00;;;4.70;99.90;;;;;;5070820;28;20877;-67
2021/04/12 00:08:50;;;;;;;9.35;5.50;;;4.70;99.90;;;;;;5070725;28;20905;-66
2021/04/12 00:11:42;;;;;;;10.03;5.53;;;4.70;99.90;;;;;;5068921;28;20407;-66
2021/04/12 00:14:17;;;;;;;8.93;5.20;;;4.50;99.90;;;;;;5070906;28;20380;-65
2021/04/12 00:16:48;;;;;;;7.80;4.97;;;4.50;99.90;;;;;;5068737;28;20395;-65
2021/04/12 00:19:22;;;;;;;10.43;5.70;;;4.50;99.90;;;;;;5069887;28;20480;-61
2021/04/12 00:22:16;;;;;;;9.07;5.50;;;4.50;99.90;;;;;;5070810;28;20367;-64
2021/04/12 00:24:48;;;;;;;9.00;5.10;;;4.50;99.90;;;;;;5068642;28;20388;-65
2021/04/12 00:27:31;;;;;;;8.93;5.50;;;4.40;99.90;;;;;;5067837;28;20387;-64
2021/04/12 00:30:11;;;;;;;10.35;5.60;;;4.40;99.90;;;;;;5070077;28;20404;-65
2021/04/12 00:32:51;;;;;;;9.70;5.80;;;4.40;99.90;;;;;;5069920;28;20726;-65
2021/04/12 00:35:28;;;;;;;9.20;5.60;;;4.50;99.90;;;;;;5068724;28;20910;-64
2021/04/12 00:38:19;;;;;;;8.80;4.70;;;4.60;99.90;;;;;;5050913;28;20411;-65
2021/04/12 00:40:53;;;;;;;9.43;5.38;;;4.40;99.90;;;;;;5070312;28;20935;-66
2021/04/12 00:43:26;;;;;;;9.60;5.60;;;4.50;99.90;;;;;;5067613;28;20402;-65
2021/04/12 00:46:13;;;;;;;8.82;5.38;;;4.50;99.90;;;;;;5069950;28;20410;-64
2021/04/12 00:49:01;;;;;;;9.90;5.70;;;4.40;99.90;;;;;;5067738;28;20403;-64
2021/04/12 00:51:54;;;;;;;9.60;5.63;;;4.40;99.90;;;;;;5069323;28;20376;-65
2021/04/12 00:54:32;;;;;;;9.07;5.63;;;4.50;99.90;;;;;;5067840;28;20893;-66
2021/04/12 00:57:17;;;;;;;9.70;5.80;;;4.50;99.90;;;;;;5067446;28;20454;-65
2021/04/12 00:59:54;;;;;;;9.95;5.50;;;4.50;99.90;;;;;;5069428;28;20416;-65
2021/04/12 01:02:48;;;;;;;9.90;5.78;;;4.40;99.90;;;;;;5068842;28;20372;-65
2021/04/12 01:05:32;;;;;;;11.80;6.05;;;4.40;99.90;;;;;;5066237;28;20465;-60
2021/04/12 01:08:03;;;;;;;9.07;5.40;;;4.40;99.90;;;;;;5067773;28;20415;-67
2021/04/12 01:10:58;;;;;;;9.82;5.90;;;4.40;99.90;;;;;;5068612;28;20753;-67
2021/04/12 01:13:42;;;;;;;10.35;5.90;;;4.30;99.90;;;;;;5069123;28;20375;-65
2021/04/12 01:16:29;;;;;;;10.65;5.85;;;4.40;99.90;;;;;;5068206;28;20899;-66
2021/04/12 01:19:26;;;;;;;10.20;6.30;;;4.30;99.90;;;;;;5069978;28;20861;-66
2021/04/12 01:22:01;;;;;;;10.23;6.03;;;4.30;99.90;;;;;;5061668;28;20465;-66
2021/04/12 01:24:55;;;;;;;11.05;6.53;;;4.30;99.90;;;;;;5068741;28;20876;-68
2021/04/12 01:27:37;;;;;;;11.98;6.22;;;4.40;99.90;;;;;;5068981;28;20388;-66
2021/04/12 01:30:27;;;;;;;11.55;6.40;;;4.30;99.90;;;;;;5068567;28;20469;-66
2021/04/12 01:33:14;;;;;;;11.82;6.30;;;4.30;99.90;;;;;;5067930;28;20402;-66
2021/04/12 01:36:20;;;;;;;11.40;6.60;;;4.10;99.90;;;;;;5069353;28;20384;-62
2021/04/12 01:39:08;;;;;;;9.85;5.60;;;4.00;99.90;;;;;;5067843;28;20544;-66
2021/04/12 01:41:55;;;;;;;11.00;6.55;;;3.70;99.90;;;;;;5068731;28;20380;-65
2021/04/12 01:44:43;;;;;;;11.00;6.60;;;3.70;99.90;;;;;;5050741;28;20480;-66
2021/04/12 01:47:39;;;;;;;11.63;6.72;;;3.70;99.90;;;;;;5067545;28;20407;-66
2021/04/12 01:50:23;;;;;;;13.32;6.82;;;3.70;99.90;;;;;;5069597;28;20775;-66
2021/04/12 01:52:57;;;;;;;11.50;6.60;;;3.90;99.90;;;;;;5068980;28;20399;-66
2021/04/12 01:55:31;;;;;;;10.40;6.43;;;4.00;99.90;;;;;;5068155;28;20397;-66
2021/04/12 01:58:33;;;;;;;12.32;6.72;;;4.00;99.90;;;;;;5067472;28;20400;-66
2021/04/12 02:01:36;;;;;;;11.48;6.40;;;4.10;99.90;;;;;;5053575;28;20395;-66
2021/04/12 02:04:30;;;;;;;12.93;6.30;;;4.20;99.90;;;;;;5071006;28;20749;-66
2021/04/12 02:07:16;;;;;;;12.68;6.93;;;4.00;99.90;;;;;;5070407;28;20438;-65
2021/04/12 02:10:06;;;;;;;12.90;7.40;;;3.90;99.90;;;;;;5071866;28;20383;-65
2021/04/12 02:13:00;;;;;;;12.00;7.00;;;3.90;99.90;;;;;;5055581;28;21051;-65
2021/04/12 02:15:59;;;;;;;12.50;7.07;;;3.90;99.90;;;;;;5072210;28;20797;-67
2021/04/12 02:18:52;;;;;;;13.52;7.63;;;3.90;99.90;;;;;;5070633;28;20483;-64
2021/04/12 02:21:26;;;;;;;13.27;7.50;;;4.00;99.90;;;;;;5071908;28;20445;-67
2021/04/12 02:24:08;;;;;;;12.00;6.97;;;4.10;99.90;;;;;;5070782;28;21020;-67
2021/04/12 02:26:42;;;;;;;12.65;6.75;;;4.00;99.90;;;;;;5072010;28;21065;-68
2021/04/12 02:29:23;;;;;;;12.32;7.38;;;4.00;99.90;;;;;;5071808;28;20375;-64
2021/04/12 02:32:14;;;;;;;14.82;7.93;;;4.20;99.90;;;;;;5071514;28;20399;-65
2021/04/12 02:34:46;;;;;;;13.75;7.03;;;4.00;99.90;;;;;;5072146;28;20379;-66
2021/04/12 02:37:38;;;;;;;12.93;7.53;;;4.10;99.90;;;;;;5070287;28;20392;-65
2021/04/12 02:40:19;;;;;;;14.13;6.82;;;4.00;99.90;;;;;;5072529;28;20528;-65
2021/04/12 02:43:22;;;;;;;12.18;7.20;;;4.00;99.90;;;;;;5072210;28;20387;-66
2021/04/12 02:46:45;;;;;;;12.85;6.82;;;4.00;99.90;;;;;;5072449;28;20427;-66
2021/04/12 02:49:32;;;;;;;13.00;7.65;;;4.10;99.90;;;;;;4990722;28;20405;-66
2021/04/12 02:52:27;;;;;;;12.57;7.20;;;4.10;99.90;;;;;;5041038;28;20379;-65
2021/04/12 02:55:20;;;;;;;12.57;7.60;;;4.20;99.90;;;;;;5072239;28;20410;-65
2021/04/12 02:58:24;;;;;;;11.77;6.88;;;4.00;99.90;;;;;;5072303;28;20376;-65
2021/04/12 03:01:12;;;;;;;11.30;6.28;;;4.50;99.90;;;;;;5054271;28;20786;-65
2021/04/12 03:03:46;;;;;;;12.90;6.30;;;4.00;99.90;;;;;;5053430;28;20400;-66
2021/04/12 03:06:30;;;;;;;10.27;6.00;;;4.00;99.90;;;;;;5072123;28;20407;-65
2021/04/12 03:09:07;;;;;;;10.05;6.15;;;4.00;99.90;;;;;;5072130;28;20425;-65
2021/04/12 03:11:57;;;;;;;9.73;5.80;;;4.00;99.90;;;;;;5070722;28;20368;-67
2021/04/12 03:14:41;;;;;;;10.75;5.95;;;4.00;99.90;;;;;;5071241;28;20433;-65
2021/04/12 03:17:22;;;;;;;10.90;6.13;;;4.00;99.90;;;;;;5072133;28;20446;-67
2021/04/12 03:20:17;;;;;;;11.07;5.90;;;4.00;99.90;;;;;;5071971;28;20375;-67
2021/04/12 03:23:17;;;;;;;10.43;6.10;;;4.00;99.90;;;;;;5071766;28;20463;-66
2021/04/12 03:26:01;;;;;;;11.88;5.90;;;3.90;99.90;;;;;;5071180;28;20485;-66
2021/04/12 03:28:51;;;;;;;12.30;6.35;;;4.00;99.90;;;;;;5070987;28;20474;-67
2021/04/12 03:31:32;;;;;;;11.77;6.57;;;4.00;99.90;;;;;;5071317;28;20396;-60
2021/04/12 03:34:22;;;;;;;12.77;7.10;;;3.80;99.90;;;;;;5071767;28;20436;-68
2021/04/12 03:36:58;;;;;;;11.85;6.38;;;3.90;99.90;;;;;;5071331;28;20867;-68
2021/04/12 03:39:41;;;;;;;11.70;7.30;;;3.80;99.90;;;;;;5070846;28;20780;-66
2021/04/12 03:42:31;;;;;;;13.00;7.00;;;3.90;99.90;;;;;;5071192;28;20372;-68
2021/04/12 03:45:17;;;;;;;15.13;8.40;;;3.90;99.90;;;;;;5071607;28;20380;-69
2021/04/12 03:48:03;;;;;;;16.65;8.05;;;4.00;99.90;;;;;;5071056;28;20837;-68
2021/04/12 03:50:46;;;;;;;15.53;8.50;;;4.10;99.90;;;;;;5070399;28;20769;-68
2021/04/12 03:53:18;;;;;;;18.83;9.88;;;4.10;99.90;;;;;;5071215;28;20907;-68
2021/04/12 03:56:07;;;;;;;15.30;8.63;;;4.10;99.90;;;;;;5071069;28;20392;-68
2021/04/12 03:58:52;;;;;;;14.27;8.07;;;4.10;99.90;;;;;;5052104;28;20863;-68
2021/04/12 04:01:48;;;;;;;16.00;9.30;;;4.10;99.90;;;;;;5052424;28;20597;-60
2021/04/12 04:04:26;;;;;;;14.98;8.88;;;4.10;99.90;;;;;;5070938;28;20372;-65
2021/04/12 04:07:16;;;;;;;15.17;9.00;;;4.10;99.90;;;;;;5070800;28;20477;-68
2021/04/12 04:10:06;;;;;;;15.68;9.23;;;4.20;99.90;;;;;;5070320;28;20462;-68
2021/04/12 04:12:53;;;;;;;15.65;8.70;;;4.10;99.90;;;;;;5068108;28;20858;-68
2021/04/12 04:15:37;;;;;;;14.82;8.75;;;4.10;99.90;;;;;;5066399;28;20419;-65
2021/04/12 04:18:29;;;;;;;15.65;9.20;;;4.10;99.90;;;;;;5050660;28;20365;-67
2021/04/12 04:21:04;;;;;;;15.93;9.10;;;4.00;99.90;;;;;;5050646;28;21106;-68
2021/04/12 04:23:54;;;;;;;17.55;10.38;;;3.90;99.90;;;;;;5049702;28;20388;-69
2021/04/12 04:26:28;;;;;;;15.32;8.43;;;4.00;99.90;;;;;;5049992;28;20507;-61
2021/04/12 04:29:06;;;;;;;16.20;8.70;;;4.00;99.90;;;;;;5050657;28;20428;-67
2021/04/12 04:31:56;;;;;;;14.70;8.30;;;4.00;99.90;;;;;;5031459;28;20859;-68
2021/04/12 04:35:02;;;;;;;14.07;8.02;;;4.00;99.90;;;;;;5049654;28;20452;-67
2021/04/12 04:37:49;;;;;;;14.32;8.07;;;3.80;99.90;;;;;;5049366;28;20747;-68
2021/04/12 04:40:23;;;;;;;13.85;7.53;;;3.70;99.90;;;;;;5061851;28;20406;-67
2021/04/12 04:43:08;;;;;;;15.70;8.13;;;3.30;99.90;;;;;;5069985;28;20379;-66
2021/04/12 04:45:57;;;;;;;13.13;7.90;;;3.40;99.90;;;;;;5065351;28;20442;-64
2021/04/12 04:48:32;;;;;;;13.35;7.60;;;3.30;99.90;;;;;;5065306;28;20384;-66
2021/04/12 04:51:41;;;;;;;17.42;9.02;;;3.30;99.90;;;;;;5069972;28;20391;-66
2021/04/12 04:54:34;;;;;;;14.43;8.00;;;3.50;99.90;;;;;;5066416;28;20406;-66
2021/04/12 04:57:21;;;;;;;13.53;8.13;;;3.80;99.90;;;;;;5054603;28;20404;-66
2021/04/12 05:00:24;;;;;;;15.50;8.10;;;3.50;99.90;;;;;;5070043;28;20471;-66
2021/04/12 05:03:31;;;;;;;15.27;9.00;;;3.30;99.90;;;;;;5068009;28;20388;-67
2021/04/12 05:06:06;;;;;;;16.15;9.10;;;3.40;99.90;;;;;;5069921;28;20404;-66
2021/04/12 05:09:00;;;;;;;15.10;8.57;;;3.50;99.90;;;;;;5067348;28;20431;-67
2021/04/12 05:11:55;;;;;;;13.97;7.93;;;3.60;99.90;;;;;;5069128;28;20384;-68
2021/04/12 05:14:51;;;;;;;16.70;9.20;;;3.60;99.90;;;;;;5066796;28;20395;-67
2021/04/12 05:17:44;;;;;;;15.88;8.80;;;3.60;99.90;;;;;;5062098;28;20421;-61
2021/04/12 05:20:22;;;;;;;20.27;10.75;;;3.60;99.90;;;;;;5064005;28;20383;-68
2021/04/12 05:23:00;;;;;;;19.13;9.93;;;3.70;99.90;;;;;;5058274;28;20546;-69
2021/04/12 05:25:28;;;;;;;17.77;10.83;;;3.70;99.90;;;;;;5062378;28;20499;-69
2021/04/12 05:28:03;;;;;;;19.98;11.30;;;3.70;99.90;;;;;;5069828;28;20387;-66
2021/04/12 05:31:04;;;;;;;17.92;10.57;;;3.80;99.90;;;;;;5063563;28;20396;-64
2021/04/12 05:33:47;;;;;;;19.45;11.48;;;3.80;99.90;;;;;;5041505;28;20396;-69
2021/04/12 05:36:35;;;;;;;19.13;11.02;;;3.90;99.90;;;;;;5069165;28;20513;-70
2021/04/12 05:39:19;;;;;;;19.65;11.70;;;4.00;99.90;;;;;;5067670;28;20392;-66
2021/04/12 05:42:01;;;;;;;21.95;12.30;;;4.80;99.90;;;;;;5068670;28;20380;-72
2021/04/12 05:44:33;;;;;;;19.48;11.20;;;4.00;99.90;;;;;;5063583;28;20805;-72
2021/04/12 05:47:07;;;;;;;21.52;12.35;;;4.10;99.90;;;;;;5069067;28;20434;-73
2021/04/12 05:49:56;;;;;;;19.92;11.40;;;4.10;99.90;;;;;;5068432;28;20396;-65
2021/04/12 05:52:37;;;;;;;19.77;12.63;;;4.30;99.90;;;;;;5067262;28;20400;-62
2021/04/12 05:55:26;;;;;;;21.50;12.30;;;4.40;99.90;;;;;;5061486;28;20399;-71
2021/04/12 05:58:16;;;;;;;21.63;12.32;;;4.40;99.90;;;;;;5049248;28;20396;-70
2021/04/12 06:01:23;;;;;;;19.65;11.30;;;4.30;99.90;;;;;;5067419;28;20486;-70
2021/04/12 06:03:59;;;;;;;19.45;10.82;;;4.30;99.90;;;;;;5050590;28;20410;-71
2021/04/12 06:06:39;;;;;;;17.75;10.88;;;4.20;99.90;;;;;;5069831;28;20410;-72
2021/04/12 06:09:11;;;;;;;16.65;10.40;;;4.30;99.90;;;;;;5069887;28;20384;-71
2021/04/12 06:11:58;;;;;;;17.17;9.95;;;4.40;99.90;;;;;;5065817;28;20490;-70
2021/04/12 06:14:58;;;;;;;17.33;10.37;;;4.50;99.90;;;;;;5070756;28;20433;-72
2021/04/12 06:17:56;;;;;;;16.75;10.30;;;4.50;99.90;;;;;;5068840;28;20395;-71
2021/04/12 06:20:32;;;;;;;18.70;10.90;;;4.50;99.90;;;;;;5067133;28;21281;-64
2021/04/12 06:23:20;;;;;;;18.73;9.95;;;4.60;99.90;;;;;;5061144;28;20426;-72
2021/04/12 06:26:06;;;;;;;16.92;10.45;;;4.80;99.90;;;;;;5066898;28;20423;-72
2021/04/12 06:28:38;;;;;;;18.02;10.75;;;4.80;99.90;;;;;;5065283;28;20436;-71
2021/04/12 06:31:24;;;;;;;17.67;10.27;;;4.70;99.90;;;;;;5070064;28;20416;-68
2021/04/12 06:34:25;;;;;;;21.35;11.90;;;4.40;99.90;;;;;;5063447;28;20395;-71
2021/04/12 06:37:04;;;;;;;17.67;10.63;;;4.50;99.90;;;;;;5069304;28;20392;-68
2021/04/12 06:39:40;;;;;;;19.80;10.83;;;4.30;99.90;;;;;;5064103;28;20392;-69
2021/04/12 06:42:25;;;;;;;20.17;10.82;;;4.30;99.90;;;;;;5068964;28;20475;-72
2021/04/12 06:45:29;;;;;;;19.33;11.40;;;4.10;99.90;;;;;;5062640;28;20372;-69
2021/04/12 06:48:23;;;;;;;21.20;11.37;;;4.20;99.90;;;;;;5009224;28;20416;-68
2021/04/12 06:51:07;;;;;;;22.02;11.32;;;4.10;99.90;;;;;;5062651;28;20814;-68
2021/04/12 06:53:57;;;;;;;20.38;11.50;;;4.00;99.90;;;;;;5064624;28;20391;-72
2021/04/12 06:57:00;;;;;;;21.80;11.57;;;4.10;99.90;;;;;;5066501;28;20483;-65
2021/04/12 06:59:57;;;;;;;19.63;11.13;;;4.20;99.90;;;;;;5066244;28;20393;-70
2021/04/12 07:02:28;;;;;;;17.85;11.02;;;4.30;99.90;;;;;;5067979;28;20408;-63
2021/04/12 07:05:22;;;;;;;17.85;11.05;;;4.30;99.90;;;;;;5051481;28;20904;-69
2021/04/12 07:08:20;;;;;;;19.25;11.15;;;4.30;99.90;;;;;;5069505;28;20418;-71
2021/04/12 07:11:24;;;;;;;20.75;12.15;;;4.50;99.90;;;;;;5068568;28;20403;-68
2021/04/12 07:14:11;;;;;;;19.92;11.85;;;4.30;99.90;;;;;;5066922;28;20396;-67
2021/04/12 07:16:52;;;;;;;20.17;12.00;;;4.20;99.90;;;;;;5065969;28;20419;-67
2021/04/12 07:19:56;;;;;;;22.70;12.65;;;4.10;99.90;;;;;;5049970;28;20851;-68
2021/04/12 07:22:40;;;;;;;20.90;11.70;;;4.20;99.90;;;;;;5065515;28;20382;-62
2021/04/12 07:25:17;;;;;;;21.65;12.40;;;4.20;99.90;;;;;;5067104;28;20399;-68
2021/04/12 07:28:04;;;;;;;23.40;12.37;;;4.20;99.90;;;;;;5063167;28;20588;-67
2021/04/12 07:31:07;;;;;;;19.70;11.93;;;4.30;99.90;;;;;;5068625;28;20881;-66
2021/04/12 07:33:54;;;;;;;23.23;12.32;;;4.30;99.90;;;;;;5065594;28;20403;-69
2021/04/12 07:36:36;;;;;;;20.55;11.27;;;4.40;99.90;;;;;;5065966;28;20385;-61
2021/04/12 07:39:36;;;;;;;23.58;12.27;;;4.40;99.90;;;;;;5068092;28;20396;-69
2021/04/12 07:42:14;;;;;;;20.85;11.88;;;4.40;99.90;;;;;;5049390;28;20394;-68
2021/04/12 07:45:15;;;;;;;22.80;12.20;;;4.40;99.90;;;;;;5066590;28;20390;-67
2021/04/12 07:48:32;;;;;;;23.50;12.05;;;4.60;99.90;;;;;;5062629;28;20970;-68
2021/04/12 07:51:29;;;;;;;21.35;12.10;;;4.70;99.90;;;;;;5065083;28;20384;-69
2021/04/12 07:54:14;;;;;;;19.65;11.73;;;4.70;99.90;;;;;;5066688;28;20437;-67
2021/04/12 07:57:17;;;;;;;20.58;12.73;;;4.60;99.90;;;;;;5068005;28;20392;-69
2021/04/12 08:00:14;;;;;;;24.60;13.15;;;4.50;99.90;;;;;;5068460;28;20384;-68
2021/04/12 08:02:57;;;;;;;20.65;11.77;;;4.60;99.90;;;;;;5068442;28;20388;-68
2021/04/12 08:05:55;;;;;;;21.85;12.07;;;4.70;99.90;;;;;;5061881;28;20408;-62
2021/04/12 08:09:04;;;;;;;21.00;12.30;;;4.60;99.90;;;;;;5066522;28;21102;-62
2021/04/12 08:12:17;;;;;;;21.00;12.67;;;5.00;99.90;;;;;;5067835;28;20431;-69
2021/04/12 08:14:51;;;;;;;20.88;12.25;;;5.00;99.90;;;;;;5000002;28;20416;-69
2021/04/12 08:17:44;;;;;;;22.27;12.27;;;5.20;99.90;;;;;;5063834;28;20415;-73
2021/04/12 08:20:50;;;;;;;19.58;12.10;;;5.10;99.90;;;;;;5067642;28;21170;-69
2021/04/12 08:23:35;;;;;;;21.00;12.00;;;5.10;99.90;;;;;;5062058;28;20424;-68
2021/04/12 08:26:38;;;;;;;22.87;12.60;;;5.10;99.90;;;;;;5063414;28;20408;-68
2021/04/12 08:29:31;;;;;;;21.90;12.30;;;5.10;99.90;;;;;;5064426;28;20390;-66
2021/04/12 08:32:49;;;;;;;22.83;12.88;;;5.20;99.90;;;;;;5066135;28;20487;-67
2021/04/12 08:35:21;;;;;;;19.75;12.60;;;5.00;99.90;;;;;;5061851;28;20373;-66
2021/04/12 08:38:05;;;;;;;20.55;12.90;;;5.30;99.90;;;;;;5067190;28;20399;-69
2021/04/12 08:40:31;;;;;;;19.33;11.85;;;5.30;99.90;;;;;;5049722;28;20814;-66
2021/04/12 08:42:56;;;;;;;22.70;12.35;;;5.40;99.90;;;;;;5065302;28;20464;-68
2021/04/12 08:45:37;;;;;;;19.37;11.80;;;5.50;99.90;;;;;;5050379;28;20488;-62
2021/04/12 08:48:23;;;;;;;18.33;11.80;;;5.70;99.90;;;;;;5063902;28;20410;-67
2021/04/12 08:51:04;;;;;;;18.48;11.48;;;6.00;99.90;;;;;;5051841;28;20393;-66
2021/04/12 08:53:51;;;;;;;19.83;11.20;;;5.90;99.90;;;;;;5059255;28;20458;-68
2021/04/12 08:56:56;;;;;;;17.95;10.43;;;6.00;99.90;;;;;;5065478;28;20399;-67
2021/04/12 08:59:42;;;;;;;19.43;11.60;;;6.10;99.90;;;;;;5030795;28;20934;-61
2021/04/12 09:02:29;;;;;;;17.75;10.95;;;6.10;99.90;;;;;;5065740;28;20398;-68
2021/04/12 09:04:59;;;;;;;20.08;11.98;;;6.10;99.90;;;;;;5065097;28;20388;-69
2021/04/12 09:07:52;;;;;;;22.17;11.47;;;6.20;99.90;;;;;;5063412;28;20394;-60
2021/04/12 09:10:31;;;;;;;18.50;11.13;;;6.50;99.90;;;;;;5064991;28;20399;-68
2021/04/12 09:13:34;;;;;;;20.00;11.10;;;6.80;99.90;;;;;;5063337;28;20878;-66
2021/04/12 09:16:18;;;;;;;17.05;11.15;;;6.50;99.90;;;;;;5063205;28;20391;-67
2021/04/12 09:18:43;;;;;;;16.90;10.98;;;6.70;99.90;;;;;;5066088;28;20485;-67
2021/04/12 09:21:17;;;;;;;16.17;10.70;;;6.90;99.90;;;;;;5064390;28;20392;-67
2021/04/12 09:24:01;;;;;;;16.52;9.90;;;7.00;99.90;;;;;;5068521;28;20463;-66
2021/04/12 09:26:58;;;;;;;19.08;9.95;;;6.70;99.90;;;;;;5066361;28;20479;-66
2021/04/12 09:29:41;;;;;;;18.27;10.20;;;6.80;99.90;;;;;;5064597;28;20390;-62
2021/04/12 09:32:44;;;;;;;17.52;10.15;;;6.10;99.90;;;;;;5045041;28;20752;-67
2021/04/12 09:35:34;;;;;;;18.23;10.33;;;7.00;99.90;;;;;;5059887;28;20403;-68
2021/04/12 09:38:29;;;;;;;14.68;9.70;;;7.10;99.90;;;;;;5066113;28;20395;-68
2021/04/12 09:41:16;;;;;;;15.38;9.27;;;7.40;99.90;;;;;;5064344;28;20396;-70
2021/04/12 09:43:54;;;;;;;13.75;8.80;;;7.90;99.90;;;;;;5065903;28;21238;-68
2021/04/12 09:46:56;;;;;;;14.07;8.13;;;8.30;99.90;;;;;;5061742;28;20404;-67
2021/04/12 09:49:28;;;;;;;17.95;9.20;;;8.20;99.90;;;;;;5067781;28;20515;-69
2021/04/12 09:52:34;;;;;;;12.88;7.90;;;8.00;99.90;;;;;;5062693;28;20537;-70
2021/04/12 09:55:18;;;;;;;12.80;7.45;;;8.10;99.90;;;;;;5064026;28;20381;-71
2021/04/12 09:58:07;;;;;;;11.60;6.72;;;8.00;99.90;;;;;;5062660;28;20503;-65
2021/04/12 10:00:42;;;;;;;12.10;7.07;;;8.00;99.90;;;;;;5061555;28;20538;-68
2021/04/12 10:03:36;;;;;;;11.05;7.25;;;7.50;99.90;;;;;;5065667;28;20429;-66
2021/04/12 10:06:19;;;;;;;13.13;6.40;;;7.40;99.90;;;;;;5061295;28;20432;-65
2021/04/12 10:09:18;;;;;;;9.25;5.95;;;7.50;99.90;;;;;;5046170;28;20410;-64
2021/04/12 10:11:49;;;;;;;10.95;7.00;;;7.90;99.90;;;;;;5063949;28;20479;-68
2021/04/12 10:14:18;;;;;;;10.93;7.13;;;8.50;99.90;;;;;;5062838;28;20369;-69
2021/04/12 10:17:06;;;;;;;11.65;7.47;;;9.60;99.90;;;;;;5059935;28;20492;-69
2021/04/12 10:19:45;;;;;;;11.48;7.28;;;10.20;99.90;;;;;;5063780;28;20372;-69
2021/04/12 10:22:16;;;;;;;10.77;6.20;;;10.90;99.90;;;;;;5068704;28;20392;-70
2021/04/12 10:24:59;;;;;;;10.40;6.90;;;11.00;99.90;;;;;;5064422;28;20399;-68
2021/04/12 10:27:49;;;;;;;11.07;6.63;;;10.40;99.90;;;;;;5070192;28;20391;-62
2021/04/12 10:30:39;;;;;;;12.18;6.32;;;9.90;99.90;;;;;;5068646;28;20451;-72
2021/04/12 10:33:20;;;;;;;8.25;5.30;;;9.90;99.90;;;;;;5050098;28;20736;-68
2021/04/12 10:35:51;;;;;;;11.03;6.00;;;9.80;99.90;;;;;;5050005;28;20379;-70
2021/04/12 10:38:25;;;;;;;9.82;6.15;;;9.50;99.90;;;;;;5067440;28;20486;-69
2021/04/12 10:40:59;;;;;;;13.43;8.10;;;9.60;99.90;;;;;;5067740;28;20413;-69
2021/04/12 10:43:31;;;;;;;9.30;5.33;;;9.50;99.90;;;;;;5064663;28;20462;-63
2021/04/12 10:46:37;;;;;;;7.80;4.90;;;9.00;99.90;;;;;;5064570;28;20399;-70
2021/04/12 10:49:11;;;;;;;7.32;4.70;;;8.60;99.90;;;;;;5068244;28;20425;-68
2021/04/12 10:51:46;;;;;;;8.50;5.00;;;8.50;99.90;;;;;;5046573;28;20889;-64
2021/04/12 10:54:21;;;;;;;9.65;4.30;;;8.90;99.90;;;;;;5068230;28;20876;-70
2021/04/12 10:57:12;;;;;;;8.48;4.00;;;8.90;99.70;;;;;;5059524;28;20457;-70
2021/04/12 10:59:50;;;;;;;9.57;4.20;;;8.80;99.90;;;;;;5068350;28;20399;-69
2021/04/12 11:02:41;;;;;;;8.17;3.87;;;9.00;99.90;;;;;;5072024;28;20475;-73
2021/04/12 11:05:13;;;;;;;8.23;4.38;;;9.40;98.70;;;;;;5069842;28;20399;-70
2021/04/12 11:07:46;;;;;;;8.18;4.47;;;9.00;99.50;;;;;;5056555;28;20847;-68
2021/04/12 11:10:34;;;;;;;9.40;4.00;;;9.00;98.70;;;;;;5085820;28;20422;-69
2021/04/12 11:13:07;;;;;;;9.00;4.43;;;9.40;98.90;;;;;;5069811;28;20387;-71
2021/04/12 11:15:44;;;;;;;6.65;3.80;;;9.00;98.40;;;;;;5032726;28;20492;-68
2021/04/12 11:18:31;;;;;;;6.30;4.10;;;9.30;96.90;;;;;;5060763;28;20392;-67
2021/04/12 11:21:11;;;;;;;8.03;3.90;;;9.40;96.20;;;;;;5053372;28;20404;-67
2021/04/12 11:23:49;;;;;;;8.35;3.90;;;9.60;97.40;;;;;;5066827;28;20396;-68
2021/04/12 11:26:26;;;;;;;7.43;4.18;;;9.60;97.90;;;;;;5048875;28;20403;-68
2021/04/12 11:29:01;;;;;;;6.72;3.38;;;9.70;98.30;;;;;;5064964;28;20400;-67
2021/04/12 11:31:33;;;;;;;7.10;3.20;;;10.30;97.00;;;;;;5069252;28;20404;-61
2021/04/12 11:34:21;;;;;;;7.45;3.30;;;10.30;93.20;;;;;;5067800;28;20391;-65
2021/04/12 11:37:17;;;;;;;6.70;3.15;;;10.50;92.80;;;;;;5070802;28;20380;-66
2021/04/12 11:39:56;;;;;;;7.00;3.23;;;10.40;93.10;;;;;;5068453;28;20478;-64
2021/04/12 11:42:28;;;;;;;8.75;3.38;;;10.80;94.20;;;;;;5071009;28;20376;-64
2021/04/12 11:45:14;;;;;;;8.23;3.80;;;10.80;92.00;;;;;;5071137;28;20396;-66
2021/04/12 11:47:59;;;;;;;8.10;3.30;;;10.60;91.90;;;;;;5068054;28;20462;-64
2021/04/12 11:50:36;;;;;;;6.10;3.20;;;10.10;91.90;;;;;;5071098;28;20454;-64
2021/04/12 11:53:27;;;;;;;7.97;3.10;;;9.90;93.20;;;;;;5070258;28;20441;-65
2021/04/12 11:56:07;;;;;;;10.10;3.80;;;9.80;93.90;;;;;;5070280;28;20411;-65
2021/04/12 11:58:39;;;;;;;7.07;3.53;;;9.80;92.50;;;;;;5070147;28;20464;-65
2021/04/12 12:01:20;;;;;;;7.93;3.60;;;9.70;94.40;;;;;;5070755;28;20434;-64
2021/04/12 12:04:02;;;;;;;7.50;3.45;;;10.50;93.60;;;;;;5052010;28;21253;-65
2021/04/12 12:06:54;;;;;;;8.20;4.07;;;10.80;92.10;;;;;;5070568;28;20403;-60
2021/04/12 12:09:37;;;;;;;6.68;2.88;;;11.40;89.90;;;;;;5070666;28;20475;-65
2021/04/12 12:12:24;;;;;;;6.60;2.85;;;11.70;83.90;;;;;;5052811;28;20509;-65
2021/04/12 12:14:56;;;;;;;7.30;3.22;;;11.40;81.70;;;;;;5069796;28;20710;-62
2021/04/12 12:17:26;;;;;;;6.88;3.20;;;11.50;83.80;;;;;;5052788;28;20449;-64
2021/04/12 12:19:53;;;;;;;6.88;3.65;;;11.30;85.20;;;;;;5070020;28;20378;-64
2021/04/12 12:22:31;;;;;;;6.50;3.20;;;11.10;83.10;;;;;;5070539;28;20379;-64
2021/04/12 12:25:36;;;;;;;9.05;3.50;;;11.30;87.60;;;;;;5070274;28;20372;-64
2021/04/12 12:28:13;;;;;;;8.93;3.40;;;11.50;84.70;;;;;;5029165;28;20408;-64
2021/04/12 12:30:41;;;;;;;7.53;3.65;;;11.00;82.50;;;;;;5069496;28;20474;-64
2021/04/12 12:33:43;;;;;;;8.07;3.58;;;10.50;83.10;;;;;;5070238;28;20461;-64
2021/04/12 12:36:36;;;;;;;7.93;3.53;;;10.10;81.90;;;;;;5027813;28;20391;-65
2021/04/12 12:39:17;;;;;;;7.57;3.47;;;10.10;81.30;;;;;;5070234;28;20368;-65
2021/04/12 12:41:46;;;;;;;8.77;3.00;;;9.80;83.30;;;;;;5069349;28;20384;-65
2021/04/12 12:44:17;;;;;;;6.13;2.90;;;9.70;86.50;;;;;;5070181;28;20426;-64
2021/04/12 12:46:44;;;;;;;6.32;3.40;;;9.80;85.50;;;;;;5069463;28;20399;-64
2021/04/12 12:49:13;;;;;;;6.43;2.90;;;10.30;82.10;;;;;;5069602;28;20371;-64
2021/04/12 12:51:40;;;;;;;6.60;3.13;;;10.60;83.60;;;;;;5069047;28;20475;-64
2021/04/12 12:54:16;;;;;;;6.65;3.30;;;10.60;81.80;;;;;;5052055;28;20714;-64
2021/04/12 12:56:44;;;;;;;6.97;2.97;;;10.60;82.50;;;;;;5069502;28;20715;-65
2021/04/12 12:59:21;;;;;;;8.20;3.40;;;10.20;83.20;;;;;;5069260;28;20462;-64
2021/04/12 13:01:47;;;;;;;6.30;3.00;;;10.40;84.60;;;;;;5069140;28;20391;-65
2021/04/12 13:04:23;;;;;;;7.00;3.20;;;10.30;81.80;;;;;;5069742;28;20386;-65
2021/04/12 13:06:52;;;;;;;7.38;3.65;;;10.50;84.10;;;;;;5069273;28;21063;-63
2021/04/12 13:09:31;;;;;;;5.82;2.70;;;10.90;86.80;;;;;;5069340;28;20475;-64
2021/04/12 13:12:14;;;;;;;7.25;3.40;;;11.50;78.10;;;;;;5069613;28;20376;-62
2021/04/12 13:14:52;;;;;;;10.20;3.90;;;11.60;79.10;;;;;;5068174;28;20725;-65
2021/04/12 13:17:31;;;;;;;7.13;3.40;;;11.40;77.30;;;;;;5069856;28;20437;-62
2021/04/12 13:20:20;;;;;;;7.75;3.30;;;11.80;79.10;;;;;;5069270;28;20408;-63
2021/04/12 13:22:59;;;;;;;8.02;3.10;;;11.90;77.30;;;;;;5058996;28;20396;-64
2021/04/12 13:25:39;;;;;;;6.70;3.00;;;11.40;72.50;;;;;;5069358;28;20426;-64
2021/04/12 13:28:13;;;;;;;6.63;2.70;;;10.90;68.40;;;;;;5069898;28;20391;-64
2021/04/12 13:30:48;;;;;;;7.75;3.03;;;10.50;71.00;;;;;;5068616;28;20498;-64
2021/04/12 13:33:38;;;;;;;6.90;3.40;;;10.60;74.40;;;;;;5069900;28;20375;-64
2021/04/12 13:36:22;;;;;;;7.30;2.83;;;10.20;74.30;;;;;;5069717;28;20384;-64
2021/04/12 13:38:51;;;;;;;7.35;3.28;;;9.50;80.00;;;;;;5050706;28;20528;-64
2021/04/12 13:41:24;;;;;;;6.38;3.03;;;9.60;82.40;;;;;;5069774;28;20376;-64
2021/04/12 13:43:55;;;;;;;8.07;3.50;;;9.30;80.30;;;;;;5068726;28;20376;-64
2021/04/12 13:46:33;;;;;;;6.60;3.22;;;9.20;84.30;;;;;;5069159;28;20469;-65
2021/04/12 13:49:07;;;;;;;6.22;2.78;;;9.10;86.00;;;;;;5069365;28;20379;-64
2021/04/12 13:51:51;;;;;;;7.03;3.10;;;9.20;82.80;;;;;;5050692;28;20776;-65
2021/04/12 13:54:30;;;;;;;5.72;2.80;;;9.10;81.00;;;;;;5067542;28;20399;-64
2021/04/12 13:57:05;;;;;;;5.85;2.80;;;9.10;85.30;;;;;;5070402;28;20403;-64
2021/04/12 13:59:37;;;;;;;6.33;3.27;;;9.20;84.30;;;;;;5052392;28;20415;-61
2021/04/12 14:02:20;;;;;;;5.55;3.08;;;9.70;82.70;;;;;;5073149;28;20379;-64
2021/04/12 14:04:49;;;;;;;6.07;2.70;;;9.80;82.70;;;;;;5071133;28;20461;-62
2021/04/12 14:07:21;;;;;;;5.40;2.80;;;9.60;81.00;;;;;;5054692;28;20741;-64
2021/04/12 14:10:10;;;;;;;7.78;2.97;;;9.50;82.50;;;;;;5071529;28;20388;-67
2021/04/12 14:12:54;;;;;;;7.00;2.80;;;9.40;83.00;;;;;;5071853;28;20467;-64
2021/04/12 14:15:48;;;;;;;8.70;3.00;;;9.20;80.30;;;;;;5072843;28;20367;-64